Time;durP1;ratioP1;P1;durP2;ratioP2;P2;SDS_P1;SDS_P2;PMS_P1;PMS_P2;Temp;Humidity;BMP_temperature;BMP_pressure;BME280_temperature;BME280_humidity;BME280_pressure;Samples;Min_cycle;Max_cycle;Signal;HPM_P1;HPM_P2
2023/04/18 00:04:13;;;;;;;6.57;5.53;;;;;;;;;;10422652;28;20738;-87
2023/04/18 00:09:15;;;;;;;9.15;5.80;;;;;;;;;;10425301;28;20432;-87
2023/04/18 00:14:18;;;;;;;6.53;5.20;;;;;;;;;;10423393;28;20405;-87
2023/04/18 00:19:21;;;;;;;6.28;5.20;;;;;;;;;;10420955;28;20431;-87
2023/04/18 00:24:22;;;;;;;6.18;5.38;;;;;;;;;;10429216;28;20455;-87
2023/04/18 00:29:26;;;;;;;5.50;4.93;;;;;;;;;;10426258;28;20878;-87
2023/04/18 00:34:28;;;;;;;5.43;4.85;;;;;;;;;;10428089;28;20415;-87
2023/04/18 00:39:29;;;;;;;5.35;4.70;;;;;;;;;;10424283;28;20432;-87
2023/04/18 00:44:32;;;;;;;5.00;4.37;;;;;;;;;;10426018;28;20403;-87
2023/04/18 00:49:35;;;;;;;5.03;4.30;;;;;;;;;;10425797;28;20772;-87
2023/04/18 00:54:37;;;;;;;5.20;4.18;;;;;;;;;;10423744;28;20411;-86
2023/04/18 00:59:41;;;;;;;5.82;4.22;;;;;;;;;;10424609;28;20410;-86
2023/04/18 01:04:43;;;;;;;5.22;4.00;;;;;;;;;;10420965;28;20418;-87
2023/04/18 01:09:45;;;;;;;6.43;4.07;;;;;;;;;;10421231;28;20408;-87
2023/04/18 01:14:48;;;;;;;4.70;3.55;;;;;;;;;;10424798;28;20399;-85
2023/04/18 01:19:50;;;;;;;5.75;4.03;;;;;;;;;;10456667;23;20423;-86
2023/04/18 01:24:53;;;;;;;5.03;3.60;;;;;;;;;;10463605;28;20414;-87
2023/04/18 01:29:55;;;;;;;4.45;3.60;;;;;;;;;;10462512;28;20459;-87
2023/04/18 01:34:57;;;;;;;4.60;4.00;;;;;;;;;;10461244;28;20409;-87
2023/04/18 01:40:00;;;;;;;3.58;3.03;;;;;;;;;;10463148;28;20409;-86
2023/04/18 01:45:02;;;;;;;4.93;3.25;;;;;;;;;;10462675;28;20398;-87
2023/04/18 01:50:05;;;;;;;4.65;3.55;;;;;;;;;;10461666;28;20409;-86
2023/04/18 01:55:09;;;;;;;5.03;3.80;;;;;;;;;;10457037;28;20408;-86
2023/04/18 02:00:12;;;;;;;5.60;3.75;;;;;;;;;;10458344;28;20846;-87
2023/04/18 02:05:14;;;;;;;4.32;3.60;;;;;;;;;;10459263;28;20741;-86
2023/04/18 02:10:17;;;;;;;4.80;3.47;;;;;;;;;;10460671;28;20398;-87
2023/04/18 02:15:19;;;;;;;3.88;3.33;;;;;;;;;;10465593;28;20507;-87
2023/04/18 02:20:21;;;;;;;3.65;3.33;;;;;;;;;;10469010;28;20430;-87
2023/04/18 02:25:26;;;;;;;4.80;3.70;;;;;;;;;;10469055;28;20487;-87
2023/04/18 02:30:28;;;;;;;5.05;3.67;;;;;;;;;;10470587;28;20443;-87
2023/04/18 02:35:30;;;;;;;4.57;3.80;;;;;;;;;;10468940;28;20423;-87
2023/04/18 02:40:33;;;;;;;4.53;3.88;;;;;;;;;;10466873;28;20426;-87
2023/04/18 02:45:35;;;;;;;4.20;3.80;;;;;;;;;;10470133;28;20396;-87
2023/04/18 02:50:37;;;;;;;4.85;3.88;;;;;;;;;;10469031;28;20837;-87
2023/04/18 02:55:40;;;;;;;4.47;3.70;;;;;;;;;;10469971;28;20781;-86
2023/04/18 03:00:42;;;;;;;4.43;3.63;;;;;;;;;;10467879;28;20434;-87
2023/04/18 03:05:44;;;;;;;4.88;3.88;;;;;;;;;;10469104;28;20791;-86
2023/04/18 03:10:47;;;;;;;5.20;3.90;;;;;;;;;;10468101;28;20408;-86
2023/04/18 03:15:49;;;;;;;4.67;3.73;;;;;;;;;;10468122;28;20413;-86
2023/04/18 03:20:51;;;;;;;5.00;3.60;;;;;;;;;;10466111;28;20781;-87
2023/04/18 03:25:55;;;;;;;4.45;4.00;;;;;;;;;;10464531;28;20923;-86
2023/04/18 03:30:57;;;;;;;5.07;3.72;;;;;;;;;;10465440;28;20417;-87
2023/04/18 03:35:59;;;;;;;6.23;4.47;;;;;;;;;;10461046;28;20865;-87
2023/04/18 03:41:02;;;;;;;4.47;3.83;;;;;;;;;;10465971;28;20818;-87
2023/04/18 03:46:04;;;;;;;4.30;3.72;;;;;;;;;;10466134;28;20403;-87
2023/04/18 03:51:06;;;;;;;5.60;4.10;;;;;;;;;;10466657;28;20461;-86
2023/04/18 03:56:10;;;;;;;5.15;4.28;;;;;;;;;;10465804;28;20427;-87
2023/04/18 04:01:11;;;;;;;5.37;4.30;;;;;;;;;;10464746;28;20407;-86
2023/04/18 04:06:14;;;;;;;6.63;4.53;;;;;;;;;;10464830;28;20407;-87
2023/04/18 04:11:17;;;;;;;5.65;4.80;;;;;;;;;;10466552;28;20457;-87
2023/04/18 04:16:19;;;;;;;5.93;4.70;;;;;;;;;;10468784;28;20471;-86
2023/04/18 04:21:21;;;;;;;6.00;5.00;;;;;;;;;;10463985;28;20407;-87
2023/04/18 04:26:25;;;;;;;7.23;4.90;;;;;;;;;;10461941;28;20891;-87
2023/04/18 04:31:27;;;;;;;6.53;4.77;;;;;;;;;;10465377;28;20501;-86
2023/04/18 04:36:29;;;;;;;5.40;4.60;;;;;;;;;;10461815;28;20429;-86
2023/04/18 04:41:32;;;;;;;5.75;4.63;;;;;;;;;;10463969;28;20475;-86
2023/04/18 04:46:38;;;;;;;7.45;5.07;;;;;;;;;;10465521;28;20903;-86
2023/04/18 04:51:40;;;;;;;6.47;4.50;;;;;;;;;;10457145;28;20468;-86
2023/04/18 04:56:43;;;;;;;6.50;4.40;;;;;;;;;;10461637;28;20514;-86
2023/04/18 05:01:45;;;;;;;6.55;4.82;;;;;;;;;;10455718;28;20795;-86
2023/04/18 05:06:47;;;;;;;5.93;4.20;;;;;;;;;;10448874;28;20408;-86
2023/04/18 05:11:50;;;;;;;7.85;4.68;;;;;;;;;;10452536;28;20837;-86
2023/04/18 05:16:52;;;;;;;7.40;5.25;;;;;;;;;;10448420;28;20931;-85
2023/04/18 05:21:54;;;;;;;8.23;5.60;;;;;;;;;;10452523;28;20450;-86
2023/04/18 05:26:57;;;;;;;6.17;5.03;;;;;;;;;;10455208;28;20401;-87
2023/04/18 05:31:59;;;;;;;6.40;4.40;;;;;;;;;;10451114;28;20402;-87
2023/04/18 05:37:01;;;;;;;8.70;5.10;;;;;;;;;;10446146;28;20426;-87
2023/04/18 05:42:05;;;;;;;9.85;5.20;;;;;;;;;;10448371;28;20882;-83
2023/04/18 05:47:07;;;;;;;23.83;6.00;;;;;;;;;;10443544;28;21093;-84
2023/04/18 05:52:10;;;;;;;12.37;4.83;;;;;;;;;;10456156;28;20499;-85
2023/04/18 05:57:13;;;;;;;6.68;4.07;;;;;;;;;;10461159;28;20418;-85
2023/04/18 06:02:15;;;;;;;6.72;4.20;;;;;;;;;;10454618;28;20476;-85
2023/04/18 06:07:17;;;;;;;5.97;3.67;;;;;;;;;;10462231;28;20403;-85
2023/04/18 06:12:20;;;;;;;7.17;3.60;;;;;;;;;;10459518;28;20403;-85
2023/04/18 06:17:22;;;;;;;9.60;4.10;;;;;;;;;;10465901;28;20506;-85
2023/04/18 06:22:24;;;;;;;7.65;3.97;;;;;;;;;;10459535;28;20407;-85
2023/04/18 06:27:28;;;;;;;4.90;3.33;;;;;;;;;;10465774;28;20462;-85
2023/04/18 06:32:29;;;;;;;4.80;3.13;;;;;;;;;;10468096;28;20411;-85
2023/04/18 06:37:31;;;;;;;4.85;2.70;;;;;;;;;;10473036;28;20904;-84
2023/04/18 06:42:34;;;;;;;5.25;2.92;;;;;;;;;;10470036;28;20410;-85
2023/04/18 06:47:36;;;;;;;5.22;3.00;;;;;;;;;;10468116;28;20402;-85
2023/04/18 06:52:42;;;;;;;7.77;2.97;;;;;;;;;;10465060;28;20406;-85
2023/04/18 06:57:46;;;;;;;4.40;2.90;;;;;;;;;;10470543;28;20423;-85
2023/04/18 07:02:48;;;;;;;5.38;3.22;;;;;;;;;;10465728;28;20415;-85
2023/04/18 07:07:50;;;;;;;6.25;3.40;;;;;;;;;;10464365;28;21086;-85
2023/04/18 07:12:54;;;;;;;5.27;3.40;;;;;;;;;;10470804;28;20402;-85
2023/04/18 07:17:56;;;;;;;3.85;3.08;;;;;;;;;;10467555;28;20511;-85
2023/04/18 07:22:59;;;;;;;3.67;2.65;;;;;;;;;;10465736;28;20498;-85
2023/04/18 07:28:02;;;;;;;4.00;3.27;;;;;;;;;;10465602;28;20695;-85
2023/04/18 07:33:05;;;;;;;3.37;2.40;;;;;;;;;;10464500;28;20403;-85
2023/04/18 07:38:07;;;;;;;3.07;2.03;;;;;;;;;;10463387;28;20426;-85
2023/04/18 07:43:10;;;;;;;3.22;1.90;;;;;;;;;;10457473;28;20413;-85
2023/04/18 07:48:13;;;;;;;2.17;1.63;;;;;;;;;;10459240;28;20490;-85
2023/04/18 07:53:15;;;;;;;4.93;2.05;;;;;;;;;;10456753;28;20424;-85
2023/04/18 07:58:18;;;;;;;2.53;1.70;;;;;;;;;;10458467;28;20454;-85
2023/04/18 08:03:20;;;;;;;2.33;1.88;;;;;;;;;;10455395;28;20491;-85
2023/04/18 08:08:22;;;;;;;2.47;1.95;;;;;;;;;;10458365;28;20429;-85
2023/04/18 08:13:25;;;;;;;4.97;1.80;;;;;;;;;;10463693;28;20439;-85
2023/04/18 08:18:28;;;;;;;4.05;1.90;;;;;;;;;;10462387;28;20430;-85
2023/04/18 08:23:30;;;;;;;1.73;1.60;;;;;;;;;;10464174;28;20449;-85
2023/04/18 08:28:33;;;;;;;1.85;1.45;;;;;;;;;;10460166;28;20833;-84
2023/04/18 08:33:35;;;;;;;2.93;1.70;;;;;;;;;;10465582;28;20416;-85
2023/04/18 08:38:37;;;;;;;2.30;1.50;;;;;;;;;;10464050;28;20452;-85
2023/04/18 08:43:40;;;;;;;2.00;1.30;;;;;;;;;;10462651;28;20412;-85
2023/04/18 08:48:42;;;;;;;1.08;1.02;;;;;;;;;;10467576;28;20450;-85
2023/04/18 08:53:44;;;;;;;1.40;1.27;;;;;;;;;;10464076;28;20412;-85
2023/04/18 08:58:48;;;;;;;2.13;1.37;;;;;;;;;;10462676;28;20609;-85
2023/04/18 09:03:50;;;;;;;1.70;1.40;;;;;;;;;;10460883;28;20454;-85
2023/04/18 09:08:57;;;;;;;1.10;0.90;;;;;;;;;;10465123;28;20414;-85
2023/04/18 09:14:01;;;;;;;1.98;1.10;;;;;;;;;;10462864;28;20405;-85
2023/04/18 09:19:10;;;;;;;1.42;1.10;;;;;;;;;;10460714;28;20976;-85
2023/04/18 09:24:22;;;;;;;1.80;1.17;;;;;;;;;;10461115;28;20461;-85
2023/04/18 09:29:45;;;;;;;1.52;1.08;;;;;;;;;;10459176;28;20410;-86
2023/04/18 09:34:47;;;;;;;3.30;1.40;;;;;;;;;;10461191;28;20482;-84
2023/04/18 09:39:50;;;;;;;2.70;1.00;;;;;;;;;;10460331;28;20478;-85
2023/04/18 09:45:03;;;;;;;1.60;1.30;;;;;;;;;;10458183;28;20403;-85
2023/04/18 09:50:09;;;;;;;2.37;0.90;;;;;;;;;;10460553;28;20453;-85
2023/04/18 09:55:13;;;;;;;1.00;0.90;;;;;;;;;;10462656;28;20798;-85
2023/04/18 10:00:23;;;;;;;1.30;0.93;;;;;;;;;;10459726;28;20436;-86
2023/04/18 10:05:27;;;;;;;0.87;0.80;;;;;;;;;;10458351;28;20780;-86
2023/04/18 10:10:29;;;;;;;1.25;1.15;;;;;;;;;;10457424;28;20826;-85
2023/04/18 10:15:33;;;;;;;1.58;1.23;;;;;;;;;;10460747;28;20399;-85
2023/04/18 10:20:35;;;;;;;1.20;0.98;;;;;;;;;;10461049;28;20429;-86
2023/04/18 10:25:50;;;;;;;1.30;1.20;;;;;;;;;;10459907;28;20402;-85
2023/04/18 10:31:02;;;;;;;1.73;1.10;;;;;;;;;;10456930;28;20495;-85
2023/04/18 10:36:16;;;;;;;1.80;1.10;;;;;;;;;;10462921;28;20460;-86
2023/04/18 10:41:23;;;;;;;2.70;1.15;;;;;;;;;;10464889;28;20862;-86
2023/04/18 10:46:26;;;;;;;2.80;1.30;;;;;;;;;;10467018;28;20501;-85
2023/04/18 10:51:28;;;;;;;21.88;3.50;;;;;;;;;;10467843;28;20413;-86
2023/04/18 10:56:30;;;;;;;1.50;1.40;;;;;;;;;;10468889;28;20426;-85
2023/04/18 11:01:38;;;;;;;4.97;1.60;;;;;;;;;;10465408;28;20479;-85
2023/04/18 11:06:50;;;;;;;3.30;1.70;;;;;;;;;;10462279;28;20488;-85
2023/04/18 11:12:04;;;;;;;1.67;1.40;;;;;;;;;;10465690;28;20407;-86
2023/04/18 11:17:17;;;;;;;2.20;1.40;;;;;;;;;;10451844;28;20484;-86
2023/04/18 11:22:19;;;;;;;1.92;1.30;;;;;;;;;;10444261;28;20509;-85
2023/04/18 11:27:25;;;;;;;1.55;1.25;;;;;;;;;;10456342;28;20411;-85
2023/04/18 11:32:29;;;;;;;2.00;1.50;;;;;;;;;;10457720;28;20416;-86
2023/04/18 11:37:31;;;;;;;2.30;1.35;;;;;;;;;;10446561;28;20927;-85
2023/04/18 11:42:34;;;;;;;5.20;1.70;;;;;;;;;;10456034;28;20416;-84
2023/04/18 11:47:37;;;;;;;1.75;1.40;;;;;;;;;;10454489;28;20408;-85
2023/04/18 11:52:41;;;;;;;3.57;1.70;;;;;;;;;;10450803;28;20779;-84
2023/04/18 11:57:43;;;;;;;1.67;1.40;;;;;;;;;;10447666;28;20427;-84
2023/04/18 12:02:47;;;;;;;2.00;1.60;;;;;;;;;;10452504;28;20409;-84
2023/04/18 12:07:49;;;;;;;2.25;1.50;;;;;;;;;;10450006;28;21149;-84
2023/04/18 12:12:52;;;;;;;1.93;1.60;;;;;;;;;;10457959;28;21158;-85
2023/04/18 12:18:00;;;;;;;35.17;5.75;;;;;;;;;;10454435;28;20944;-85
2023/04/18 12:23:03;;;;;;;1.92;1.50;;;;;;;;;;10453451;28;20469;-85
2023/04/18 12:28:15;;;;;;;2.33;1.63;;;;;;;;;;10450462;28;20406;-85
2023/04/18 12:33:19;;;;;;;2.90;1.60;;;;;;;;;;10449929;28;20415;-85
2023/04/18 12:38:22;;;;;;;2.80;1.50;;;;;;;;;;10458445;28;20444;-84
2023/04/18 12:43:24;;;;;;;3.27;1.60;;;;;;;;;;10453459;28;20401;-84
2023/04/18 12:48:28;;;;;;;2.38;1.60;;;;;;;;;;10449156;28;20403;-84
2023/04/18 12:53:30;;;;;;;1.60;1.50;;;;;;;;;;10446407;28;20904;-85
2023/04/18 12:58:32;;;;;;;11.13;1.83;;;;;;;;;;10446984;28;21477;-82
2023/04/18 13:03:36;;;;;;;1.40;1.30;;;;;;;;;;10447981;28;20414;-84
2023/04/18 13:08:38;;;;;;;4.03;1.63;;;;;;;;;;10455150;28;20770;-85
2023/04/18 13:13:40;;;;;;;1.73;1.60;;;;;;;;;;10458386;28;20410;-85
2023/04/18 13:18:43;;;;;;;2.25;1.40;;;;;;;;;;10447062;28;20848;-86
2023/04/18 13:23:45;;;;;;;2.13;1.53;;;;;;;;;;10449982;28;20419;-85
2023/04/18 13:28:47;;;;;;;7.10;1.70;;;;;;;;;;10448938;28;20776;-86
2023/04/18 13:33:50;;;;;;;2.83;1.43;;;;;;;;;;10437790;28;20816;-86
2023/04/18 13:38:52;;;;;;;2.80;1.42;;;;;;;;;;10440308;28;20513;-85
2023/04/18 13:43:54;;;;;;;3.15;1.85;;;;;;;;;;10452909;28;20933;-85
2023/04/18 13:48:58;;;;;;;2.25;1.92;;;;;;;;;;10446736;28;20407;-86
2023/04/18 13:54:00;;;;;;;8.23;2.53;;;;;;;;;;10448024;28;20500;-86
2023/04/18 13:59:02;;;;;;;2.35;2.15;;;;;;;;;;10446297;28;20506;-85
2023/04/18 14:04:06;;;;;;;3.00;2.03;;;;;;;;;;10442985;28;20443;-85
2023/04/18 14:09:08;;;;;;;2.85;1.90;;;;;;;;;;10443327;28;20405;-84
2023/04/18 14:14:09;;;;;;;3.35;1.80;;;;;;;;;;10461100;28;20421;-84
2023/04/18 14:19:13;;;;;;;3.80;1.88;;;;;;;;;;10449111;28;20513;-85
2023/04/18 14:24:15;;;;;;;1.75;1.65;;;;;;;;;;10457040;28;20411;-85
2023/04/18 14:29:17;;;;;;;1.75;1.60;;;;;;;;;;10453617;28;20418;-84
2023/04/18 14:34:20;;;;;;;4.20;1.60;;;;;;;;;;10448244;28;20438;-84
2023/04/18 14:39:22;;;;;;;2.58;1.67;;;;;;;;;;10452192;28;20477;-84
2023/04/18 14:44:24;;;;;;;1.40;1.30;;;;;;;;;;10450302;28;20418;-84
2023/04/18 14:49:27;;;;;;;2.83;2.63;;;;;;;;;;10453383;28;20495;-85
2023/04/18 14:54:29;;;;;;;1.98;1.30;;;;;;;;;;10453359;28;20935;-84
2023/04/18 14:59:31;;;;;;;4.35;1.13;;;;;;;;;;10460016;28;20467;-85
2023/04/18 15:04:34;;;;;;;2.70;1.20;;;;;;;;;;10458052;28;20888;-84
2023/04/18 15:09:36;;;;;;;2.58;1.10;;;;;;;;;;10445082;28;20870;-85
2023/04/18 15:14:38;;;;;;;1.00;0.90;;;;;;;;;;10450285;28;20445;-84
2023/04/18 15:19:41;;;;;;;1.85;1.17;;;;;;;;;;10452508;28;20473;-84
2023/04/18 15:24:43;;;;;;;1.20;1.10;;;;;;;;;;10448006;28;20510;-82
2023/04/18 15:29:45;;;;;;;9.30;1.98;;;;;;;;;;10444884;28;20771;-83
2023/04/18 15:34:49;;;;;;;2.55;1.10;;;;;;;;;;10439191;28;20997;-83
2023/04/18 15:39:51;;;;;;;11.68;1.83;;;;;;;;;;10441076;28;20477;-83
2023/04/18 15:44:53;;;;;;;1.73;1.30;;;;;;;;;;10442354;28;20412;-83
2023/04/18 15:49:56;;;;;;;3.22;1.30;;;;;;;;;;10433512;28;20420;-84
2023/04/18 15:54:59;;;;;;;2.00;1.20;;;;;;;;;;10439798;28;20915;-84
2023/04/18 16:00:00;;;;;;;1.35;1.25;;;;;;;;;;10440631;28;20481;-83
2023/04/18 16:05:04;;;;;;;1.35;1.10;;;;;;;;;;10441660;28;20415;-83
2023/04/18 16:10:08;;;;;;;1.55;1.38;;;;;;;;;;10439176;28;20427;-83
2023/04/18 16:15:11;;;;;;;1.85;1.45;;;;;;;;;;10438706;28;20416;-83
2023/04/18 16:20:15;;;;;;;2.90;1.30;;;;;;;;;;10443877;28;20428;-83
2023/04/18 16:25:17;;;;;;;2.85;1.70;;;;;;;;;;10443099;28;20822;-84
2023/04/18 16:30:19;;;;;;;1.95;1.30;;;;;;;;;;10441574;28;20460;-83
2023/04/18 16:35:23;;;;;;;1.73;1.30;;;;;;;;;;10443902;28;20411;-84
2023/04/18 16:40:29;;;;;;;2.72;1.60;;;;;;;;;;10448495;28;20499;-84
2023/04/18 16:45:30;;;;;;;2.17;1.50;;;;;;;;;;10443985;28;20413;-84
2023/04/18 16:50:34;;;;;;;2.85;1.70;;;;;;;;;;10444488;28;20825;-84
2023/04/18 16:55:36;;;;;;;2.47;1.60;;;;;;;;;;10443124;28;20407;-85
2023/04/18 17:00:37;;;;;;;4.90;1.50;;;;;;;;;;10449595;28;20449;-86
2023/04/18 17:05:41;;;;;;;2.13;1.30;;;;;;;;;;10443745;28;20765;-85
2023/04/18 17:10:43;;;;;;;1.70;1.43;;;;;;;;;;10444578;28;20882;-85
2023/04/18 17:15:45;;;;;;;2.37;1.67;;;;;;;;;;10450772;28;20454;-83
2023/04/18 17:20:48;;;;;;;4.55;2.30;;;;;;;;;;10454617;28;20885;-83
2023/04/18 17:25:50;;;;;;;2.30;1.90;;;;;;;;;;10446169;28;20432;-83
2023/04/18 17:30:52;;;;;;;2.30;2.08;;;;;;;;;;10446049;28;20424;-83
2023/04/18 17:35:56;;;;;;;1.85;1.73;;;;;;;;;;10447332;28;20476;-85
2023/04/18 17:40:59;;;;;;;1.60;1.40;;;;;;;;;;10438434;28;20493;-85
2023/04/18 17:46:02;;;;;;;1.80;1.67;;;;;;;;;;10444421;28;20400;-85
2023/04/18 17:51:05;;;;;;;4.15;2.30;;;;;;;;;;10460345;28;20406;-85
2023/04/18 17:56:07;;;;;;;4.40;2.50;;;;;;;;;;10449017;28;20838;-85
2023/04/18 18:01:14;;;;;;;3.35;2.53;;;;;;;;;;10446875;28;20842;-85
2023/04/18 18:06:18;;;;;;;3.30;2.40;;;;;;;;;;10442839;28;20972;-85
2023/04/18 18:11:20;;;;;;;2.20;2.00;;;;;;;;;;10439169;28;20416;-83
2023/04/18 18:16:22;;;;;;;2.73;2.47;;;;;;;;;;10441456;28;20899;-83
2023/04/18 18:21:27;;;;;;;2.90;2.40;;;;;;;;;;10443595;28;20821;-83
2023/04/18 18:26:29;;;;;;;3.25;2.45;;;;;;;;;;10440102;28;20419;-84
2023/04/18 18:31:31;;;;;;;2.78;2.35;;;;;;;;;;10445903;28;20412;-83
2023/04/18 18:36:35;;;;;;;3.15;2.50;;;;;;;;;;10435634;28;20977;-83
2023/04/18 18:41:36;;;;;;;4.38;2.70;;;;;;;;;;10450994;28;20413;-83
2023/04/18 18:46:38;;;;;;;4.50;3.00;;;;;;;;;;10448165;28;20402;-83
2023/04/18 18:51:43;;;;;;;5.40;3.50;;;;;;;;;;10448378;28;20434;-83
2023/04/18 18:56:45;;;;;;;3.50;3.10;;;;;;;;;;10448519;28;20889;-83
2023/04/18 19:01:47;;;;;;;3.03;2.73;;;;;;;;;;10455576;28;20463;-84
2023/04/18 19:06:50;;;;;;;4.07;2.70;;;;;;;;;;10443868;28;20922;-83
2023/04/18 19:11:53;;;;;;;5.40;2.80;;;;;;;;;;10455476;28;20520;-84
2023/04/18 19:16:56;;;;;;;4.15;2.83;;;;;;;;;;10446113;28;20506;-84
2023/04/18 19:22:00;;;;;;;4.28;3.30;;;;;;;;;;10443060;28;20415;-84
2023/04/18 19:27:02;;;;;;;5.35;3.70;;;;;;;;;;10443215;28;20427;-85
2023/04/18 19:32:05;;;;;;;6.90;3.73;;;;;;;;;;10447886;28;20422;-85
2023/04/18 19:37:08;;;;;;;5.33;3.70;;;;;;;;;;10440635;28;21687;-84
2023/04/18 19:42:10;;;;;;;5.80;3.70;;;;;;;;;;10442396;28;20422;-85
2023/04/18 19:47:12;;;;;;;5.13;3.20;;;;;;;;;;10439957;28;20429;-83
2023/04/18 19:52:15;;;;;;;4.13;2.90;;;;;;;;;;10438673;28;20439;-83
2023/04/18 19:57:17;;;;;;;3.67;2.77;;;;;;;;;;10440522;28;20408;-83
2023/04/18 20:02:19;;;;;;;3.20;2.80;;;;;;;;;;10442249;28;20427;-83
2023/04/18 20:07:22;;;;;;;4.05;2.80;;;;;;;;;;10447766;28;20412;-83
2023/04/18 20:12:24;;;;;;;3.40;2.83;;;;;;;;;;10448227;28;20415;-82
2023/04/18 20:17:26;;;;;;;4.50;3.42;;;;;;;;;;10449495;28;20975;-83
2023/04/18 20:22:31;;;;;;;4.50;3.37;;;;;;;;;;10450067;28;20882;-83
2023/04/18 20:27:32;;;;;;;7.43;3.80;;;;;;;;;;10446814;28;20418;-82
2023/04/18 20:32:35;;;;;;;5.40;3.80;;;;;;;;;;10453853;28;20534;-83
2023/04/18 20:37:40;;;;;;;7.75;4.07;;;;;;;;;;10442088;28;20423;-83
2023/04/18 20:42:42;;;;;;;6.35;4.43;;;;;;;;;;10448933;28;20449;-83
2023/04/18 20:47:44;;;;;;;5.15;4.03;;;;;;;;;;10452443;28;20419;-83
2023/04/18 20:52:47;;;;;;;4.75;3.90;;;;;;;;;;10447669;28;20414;-83
2023/04/18 20:57:49;;;;;;;6.60;4.25;;;;;;;;;;10446391;28;20511;-84
2023/04/18 21:02:51;;;;;;;6.20;4.50;;;;;;;;;;10449720;28;20431;-82
2023/04/18 21:07:55;;;;;;;5.97;4.78;;;;;;;;;;10449677;28;20408;-82
2023/04/18 21:12:57;;;;;;;5.80;4.55;;;;;;;;;;10450384;28;20409;-81
2023/04/18 21:17:59;;;;;;;7.75;4.45;;;;;;;;;;10450563;28;20508;-83
2023/04/18 21:23:02;;;;;;;5.28;4.60;;;;;;;;;;10452344;28;20417;-82
2023/04/18 21:28:05;;;;;;;6.63;5.00;;;;;;;;;;10446153;28;20495;-82
2023/04/18 21:33:07;;;;;;;6.28;5.03;;;;;;;;;;10439143;28;21200;-82
2023/04/18 21:38:10;;;;;;;7.70;6.00;;;;;;;;;;10445987;28;20411;-82
2023/04/18 21:43:12;;;;;;;8.90;6.88;;;;;;;;;;10448102;28;20925;-82
2023/04/18 21:48:14;;;;;;;10.13;6.90;;;;;;;;;;10446414;28;20418;-82
2023/04/18 21:53:17;;;;;;;11.15;6.90;;;;;;;;;;10442349;28;20980;-82
2023/04/18 21:58:19;;;;;;;9.40;6.40;;;;;;;;;;10458766;28;20396;-82
2023/04/18 22:03:21;;;;;;;10.75;6.50;;;;;;;;;;10446218;28;20457;-82
2023/04/18 22:08:25;;;;;;;13.00;7.10;;;;;;;;;;10450892;28;20451;-83
2023/04/18 22:13:31;;;;;;;9.57;6.72;;;;;;;;;;10449933;28;20436;-83
2023/04/18 22:18:33;;;;;;;12.10;7.40;;;;;;;;;;10460935;28;20950;-82
2023/04/18 22:23:36;;;;;;;9.05;6.88;;;;;;;;;;10461521;28;20424;-82
2023/04/18 22:28:38;;;;;;;9.80;7.00;;;;;;;;;;10466014;28;20399;-82
2023/04/18 22:33:40;;;;;;;9.48;6.70;;;;;;;;;;10463683;28;20480;-82
2023/04/18 22:38:43;;;;;;;9.07;6.30;;;;;;;;;;10467198;28;20888;-83
2023/04/18 22:43:45;;;;;;;8.35;6.90;;;;;;;;;;10474232;28;20423;-83
2023/04/18 22:48:47;;;;;;;10.23;7.30;;;;;;;;;;10467441;28;20455;-83
2023/04/18 22:53:50;;;;;;;8.80;7.07;;;;;;;;;;10465979;28;20840;-83
2023/04/18 23:04:49;;;;;;;10.70;6.70;;;;;;;;;;10466193;28;20455;-83
2023/04/18 23:09:52;;;;;;;9.00;6.65;;;;;;;;;;10465271;28;20832;-83
2023/04/18 23:14:54;;;;;;;10.52;7.28;;;;;;;;;;10469960;28;20411;-82
2023/04/18 23:19:55;;;;;;;12.20;7.82;;;;;;;;;;10465612;28;20420;-83
2023/04/18 23:24:59;;;;;;;11.20;8.03;;;;;;;;;;10466862;28;20554;-82
2023/04/18 23:30:00;;;;;;;13.90;9.55;;;;;;;;;;10466233;28;20400;-83
2023/04/18 23:35:03;;;;;;;12.33;8.67;;;;;;;;;;10468722;28;20411;-83
2023/04/18 23:40:08;;;;;;;11.40;8.52;;;;;;;;;;10468073;28;20913;-82
2023/04/18 23:45:10;;;;;;;11.87;9.13;;;;;;;;;;10464717;28;20765;-83
2023/04/18 23:50:12;;;;;;;11.35;8.82;;;;;;;;;;10468000;28;20399;-82
2023/04/18 23:55:16;;;;;;;12.55;8.98;;;;;;;;;;10465840;28;20491;-83
